Terminal Aerodrome Forecast
Issued by NWS Cleveland, OH

Home | Current Version | Previous Version | Graphics & Text | Print | Product List | Glossary On
Versions: 1 2 3 4 5 6 7 8 9 10 11 12 13 14 15 16 17 18 19 20 21 22 23 24 25 26 27
134
FTUS41 KCLE 022342
TAFCLE
TAF
KCLE 022342Z 0300/0406 14015G25KT P6SM VCSH BKN050 OVC150
     FM030500 18020G32KT 6SM -SHRA SCT025 OVC035
      TEMPO 0305/0309 3SM -TSRA BKN015 OVC025CB
     FM030900 20020G32KT 5SM -RA SCT025 OVC035
     FM031600 22015G25KT P6SM BKN035 OVC050=

USA.gov is the U.S. government's official web portal to all federal, state and local government web resources and services.